Clinchfield, Georgia
Current Conditions -  °F | °C
As of 8:55 PM on Monday 24 Nov 2014 (Local Time) from KPXE Reporting Station
Clear Clear  
Wind Chill: 71°   Ceiling: Unl
Heat Index: 71°   Visibility: 7mi
Dew Point: 66°   Wind: 7mph
Humidity: 85%   Direction: 210°SSW
Pressure: 29.95"   Gusts: NA
Location:  32.41°N, 83.64°W
Report Text: KPXE 250155Z AUTO 21006KT 7SM CLR 22/19 A2995 RMK AO2 LTG DSNT SE T02150188
Loading
Personal Weather Stations






























Interactive Weather Map New forecast layout! Learn more

10-Day Weather Forecast

Advertisements
Track Severe Weather on mobile